Time;durP1;ratioP1;P1;durP2;ratioP2;P2;SDS_P1;SDS_P2;PMS_P1;PMS_P2;Temp;Humidity;BMP_temperature;BMP_pressure;BME280_temperature;BME280_humidity;BME280_pressure;Samples;Min_cycle;Max_cycle;Signal;HPM_P1;HPM_P2
2023/11/13 00:00:33;;;;;;;24.38;13.50;;;;;;;;;;5117075;28;20019;-29
2023/11/13 00:02:58;;;;;;;28.75;14.65;;;;;;;;;;5117047;28;20513;-28
2023/11/13 00:05:23;;;;;;;26.07;14.27;;;;;;;;;;5116666;28;20398;-28
2023/11/13 00:07:48;;;;;;;41.43;15.43;;;;;;;;;;5117189;28;20306;-28
2023/11/13 00:10:13;;;;;;;35.00;15.43;;;;;;;;;;5116952;28;20245;-27
2023/11/13 00:12:39;;;;;;;60.50;15.50;;;;;;;;;;5116571;28;20011;-28
2023/11/13 00:15:04;;;;;;;32.72;15.23;;;;;;;;;;5117280;28;20081;-28
2023/11/13 00:17:30;;;;;;;33.00;14.85;;;;;;;;;;5116409;28;20028;-28
2023/11/13 00:19:55;;;;;;;46.47;15.37;;;;;;;;;;5117012;28;20046;-28
2023/11/13 00:22:20;;;;;;;53.37;15.47;;;;;;;;;;5116981;28;20261;-28
2023/11/13 00:24:45;;;;;;;38.90;15.97;;;;;;;;;;5116262;28;20628;-28
2023/11/13 00:27:10;;;;;;;60.37;15.50;;;;;;;;;;5116781;28;20253;-28
2023/11/13 00:29:35;;;;;;;52.20;13.90;;;;;;;;;;5116547;28;20736;-28
2023/11/13 00:32:01;;;;;;;30.67;13.80;;;;;;;;;;5116460;28;20027;-28
2023/11/13 00:34:26;;;;;;;53.60;14.48;;;;;;;;;;5116118;28;20340;-28
2023/11/13 00:36:51;;;;;;;55.37;14.53;;;;;;;;;;5116104;28;20489;-28
2023/11/13 00:39:17;;;;;;;34.55;13.82;;;;;;;;;;5116029;28;20270;-27
2023/11/13 00:41:42;;;;;;;23.98;13.32;;;;;;;;;;5116026;28;20103;-27
2023/11/13 00:44:07;;;;;;;29.33;14.32;;;;;;;;;;5116257;28;20022;-28
2023/11/13 00:46:33;;;;;;;25.85;13.70;;;;;;;;;;5116120;28;20023;-28
2023/11/13 00:48:58;;;;;;;27.17;13.35;;;;;;;;;;5115831;28;20015;-28
2023/11/13 00:51:23;;;;;;;25.13;13.73;;;;;;;;;;5116407;28;20026;-28
2023/11/13 00:53:48;;;;;;;22.48;13.95;;;;;;;;;;5115545;28;20679;-27
2023/11/13 00:56:14;;;;;;;24.70;13.52;;;;;;;;;;5097503;28;20463;-27
2023/11/13 00:58:39;;;;;;;21.35;13.35;;;;;;;;;;5115924;28;20347;-28
2023/11/13 01:01:10;;;;;;;23.10;13.30;;;;;;;;;;5116222;28;20020;-28
2023/11/13 01:03:35;;;;;;;21.50;12.38;;;;;;;;;;5115848;28;20284;-28
2023/11/13 01:06:00;;;;;;;21.08;12.95;;;;;;;;;;5115450;28;20055;-28
2023/11/13 01:08:26;;;;;;;22.55;12.52;;;;;;;;;;5115781;28;20016;-28
2023/11/13 01:10:52;;;;;;;19.48;11.98;;;;;;;;;;5115404;28;20068;-28
2023/11/13 01:13:17;;;;;;;21.08;12.23;;;;;;;;;;5115592;28;20481;-28
2023/11/13 01:15:43;;;;;;;21.83;12.10;;;;;;;;;;5115295;28;20028;-28
2023/11/13 01:18:08;;;;;;;24.73;12.07;;;;;;;;;;5115367;28;20028;-28
2023/11/13 01:20:33;;;;;;;23.02;12.15;;;;;;;;;;5115248;28;20507;-28
2023/11/13 01:22:58;;;;;;;20.58;11.32;;;;;;;;;;5115169;28;20016;-28
2023/11/13 01:25:24;;;;;;;19.55;11.50;;;;;;;;;;5115306;28;20024;-28
2023/11/13 01:27:49;;;;;;;21.55;11.25;;;;;;;;;;5115361;28;20016;-28
2023/11/13 01:30:14;;;;;;;19.20;10.82;;;;;;;;;;5115323;28;20023;-28
2023/11/13 01:32:39;;;;;;;18.65;11.38;;;;;;;;;;5115010;28;20435;-28
2023/11/13 01:35:05;;;;;;;20.45;11.13;;;;;;;;;;5115525;28;20081;-28
2023/11/13 01:37:30;;;;;;;22.83;12.38;;;;;;;;;;5115211;28;20482;-28
2023/11/13 01:39:55;;;;;;;23.05;10.57;;;;;;;;;;5114830;28;20485;-28
2023/11/13 01:42:20;;;;;;;19.15;10.52;;;;;;;;;;5114798;28;20020;-28
2023/11/13 01:44:45;;;;;;;17.00;10.97;;;;;;;;;;5114990;28;20024;-28
2023/11/13 01:47:11;;;;;;;21.73;11.20;;;;;;;;;;5114720;28;20250;-28
2023/11/13 01:49:36;;;;;;;17.85;10.30;;;;;;;;;;5114857;28;20266;-28
2023/11/13 01:52:01;;;;;;;27.02;10.30;;;;;;;;;;5114463;28;20023;-28
2023/11/13 01:54:27;;;;;;;17.13;9.85;;;;;;;;;;5115113;28;20101;-28
2023/11/13 01:56:54;;;;;;;18.90;10.10;;;;;;;;;;5114543;28;20484;-28
2023/11/13 01:59:19;;;;;;;21.95;10.60;;;;;;;;;;5114021;28;20030;-28
2023/11/13 02:01:44;;;;;;;21.02;10.02;;;;;;;;;;5114522;28;20031;-28
2023/11/13 02:04:09;;;;;;;16.30;9.68;;;;;;;;;;5114633;28;20145;-26
2023/11/13 02:06:35;;;;;;;16.17;9.50;;;;;;;;;;5114802;28;20023;-26
2023/11/13 02:09:00;;;;;;;15.65;9.45;;;;;;;;;;5114267;28;20264;-27
2023/11/13 02:11:25;;;;;;;16.35;9.40;;;;;;;;;;5114280;28;20016;-28
2023/11/13 02:13:52;;;;;;;18.52;10.60;;;;;;;;;;5114438;28;20015;-27
2023/11/13 02:16:17;;;;;;;17.05;9.38;;;;;;;;;;5114481;28;20542;-28
2023/11/13 02:18:42;;;;;;;18.80;9.77;;;;;;;;;;5114141;28;20098;-28
2023/11/13 02:21:08;;;;;;;16.40;9.70;;;;;;;;;;5114140;28;20058;-28
2023/11/13 02:23:34;;;;;;;18.90;9.60;;;;;;;;;;5114381;28;20117;-28
2023/11/13 02:26:01;;;;;;;18.25;9.80;;;;;;;;;;5113949;28;20019;-28
2023/11/13 02:28:27;;;;;;;17.75;9.65;;;;;;;;;;5114312;28;20453;-28
2023/11/13 02:30:52;;;;;;;17.53;9.63;;;;;;;;;;5113999;28;20027;-28
2023/11/13 02:33:17;;;;;;;14.77;9.25;;;;;;;;;;5114059;28;20248;-28
2023/11/13 02:35:42;;;;;;;15.40;9.03;;;;;;;;;;5113892;28;20051;-28
2023/11/13 02:38:08;;;;;;;19.23;9.38;;;;;;;;;;5113942;28;20632;-28
2023/11/13 02:40:33;;;;;;;18.50;9.38;;;;;;;;;;5113912;28;20011;-28
2023/11/13 02:42:59;;;;;;;16.58;9.65;;;;;;;;;;5114692;28;20497;-28
2023/11/13 02:45:24;;;;;;;20.48;9.63;;;;;;;;;;5113786;28;20026;-28
2023/11/13 02:47:51;;;;;;;21.42;9.50;;;;;;;;;;5114357;28;20027;-28
2023/11/13 02:50:17;;;;;;;15.77;9.50;;;;;;;;;;5114071;28;20110;-28
2023/11/13 02:52:42;;;;;;;18.60;9.23;;;;;;;;;;5113761;28;20502;-28
2023/11/13 02:55:07;;;;;;;14.98;9.23;;;;;;;;;;5113976;28;20027;-28
2023/11/13 02:57:33;;;;;;;18.00;9.73;;;;;;;;;;5113781;28;20427;-28
2023/11/13 02:59:58;;;;;;;16.48;9.10;;;;;;;;;;5113949;28;20116;-28
2023/11/13 03:02:23;;;;;;;16.67;9.50;;;;;;;;;;5113966;28;20092;-28
2023/11/13 03:04:48;;;;;;;15.60;8.95;;;;;;;;;;5113801;28;20616;-28
2023/11/13 03:07:14;;;;;;;14.77;9.23;;;;;;;;;;5114189;28;20464;-28
2023/11/13 03:09:39;;;;;;;17.40;9.38;;;;;;;;;;5114189;28;20012;-28
2023/11/13 03:12:04;;;;;;;15.00;8.85;;;;;;;;;;5118181;28;20474;-27
2023/11/13 03:14:29;;;;;;;17.48;8.57;;;;;;;;;;5118409;28;20024;-28
2023/11/13 03:16:56;;;;;;;16.08;9.10;;;;;;;;;;5117671;28;20022;-27
2023/11/13 03:19:22;;;;;;;15.90;9.60;;;;;;;;;;5117867;28;20103;-28
2023/11/13 03:21:47;;;;;;;18.70;9.38;;;;;;;;;;5118183;28;20423;-28
2023/11/13 03:24:13;;;;;;;16.47;9.00;;;;;;;;;;5117560;28;20020;-28
2023/11/13 03:26:38;;;;;;;15.98;9.18;;;;;;;;;;5117385;28;20273;-28
2023/11/13 03:29:03;;;;;;;17.07;8.97;;;;;;;;;;5117427;28;20016;-28
2023/11/13 03:31:28;;;;;;;16.48;10.18;;;;;;;;;;5117400;28;20250;-27
2023/11/13 03:33:54;;;;;;;19.83;9.40;;;;;;;;;;5117411;28;20096;-28
2023/11/13 03:36:19;;;;;;;15.55;9.05;;;;;;;;;;5117234;28;20402;-28
2023/11/13 03:38:45;;;;;;;19.25;9.40;;;;;;;;;;5117238;28;20144;-28
2023/11/13 03:41:10;;;;;;;15.85;9.20;;;;;;;;;;5117460;28;20458;-28
2023/11/13 03:43:36;;;;;;;19.92;9.50;;;;;;;;;;5117116;28;20019;-28
2023/11/13 03:46:02;;;;;;;16.10;9.23;;;;;;;;;;5117255;28;20031;-27
2023/11/13 03:48:27;;;;;;;18.52;9.02;;;;;;;;;;5117245;28;20008;-27
2023/11/13 03:50:52;;;;;;;16.00;9.30;;;;;;;;;;5117499;28;20477;-28
2023/11/13 03:53:19;;;;;;;17.20;8.85;;;;;;;;;;5116683;28;20289;-27
2023/11/13 03:55:44;;;;;;;14.25;8.77;;;;;;;;;;5117119;28;20095;-27
2023/11/13 03:58:09;;;;;;;16.17;8.97;;;;;;;;;;5117100;28;20099;-28
2023/11/13 04:00:35;;;;;;;22.65;9.25;;;;;;;;;;5117362;28;20307;-27
2023/11/13 04:03:00;;;;;;;17.60;9.15;;;;;;;;;;5117031;28;20031;-28
2023/11/13 04:05:26;;;;;;;17.42;8.95;;;;;;;;;;5116891;28;20019;-28
2023/11/13 04:07:51;;;;;;;17.23;9.57;;;;;;;;;;5116578;28;20020;-28
2023/11/13 04:10:17;;;;;;;14.77;9.23;;;;;;;;;;5117199;28;20022;-28
2023/11/13 04:12:43;;;;;;;14.77;8.95;;;;;;;;;;5116734;28;20278;-28
2023/11/13 04:15:08;;;;;;;15.02;8.70;;;;;;;;;;5117021;28;20458;-28
2023/11/13 04:17:34;;;;;;;15.68;9.02;;;;;;;;;;5116398;28;20102;-28
2023/11/13 04:20:00;;;;;;;19.27;8.88;;;;;;;;;;5116582;28;20034;-28
2023/11/13 04:22:26;;;;;;;18.85;9.10;;;;;;;;;;5116587;28;20447;-28
2023/11/13 04:24:51;;;;;;;16.27;9.48;;;;;;;;;;5116484;28;20370;-28
2023/11/13 04:27:17;;;;;;;14.32;8.63;;;;;;;;;;5116540;28;20011;-28
2023/11/13 04:29:42;;;;;;;18.03;8.83;;;;;;;;;;5116248;28;20067;-28
2023/11/13 04:32:07;;;;;;;15.07;8.93;;;;;;;;;;5116727;28;20234;-28
2023/11/13 04:34:32;;;;;;;16.03;9.13;;;;;;;;;;5116168;28;20253;-28
2023/11/13 04:36:58;;;;;;;14.98;8.95;;;;;;;;;;5116060;28;20277;-28
2023/11/13 04:39:23;;;;;;;18.80;9.47;;;;;;;;;;5116363;28;20402;-28
2023/11/13 04:41:48;;;;;;;15.98;8.75;;;;;;;;;;5116308;28;20261;-28
2023/11/13 04:44:13;;;;;;;13.75;8.55;;;;;;;;;;5116233;28;20351;-28
2023/11/13 04:46:39;;;;;;;19.13;9.77;;;;;;;;;;5115751;28;20031;-29
2023/11/13 04:49:04;;;;;;;14.55;8.57;;;;;;;;;;5116440;28;20012;-28
2023/11/13 04:51:29;;;;;;;15.35;9.57;;;;;;;;;;5116111;28;20479;-28
2023/11/13 04:53:54;;;;;;;20.93;9.77;;;;;;;;;;5115655;28;20036;-28
2023/11/13 04:56:19;;;;;;;16.27;9.90;;;;;;;;;;5115892;28;20581;-27
2023/11/13 04:58:45;;;;;;;16.77;9.48;;;;;;;;;;5115907;28;20023;-28
2023/11/13 05:01:10;;;;;;;15.37;9.40;;;;;;;;;;5115660;28;20031;-27
2023/11/13 05:03:35;;;;;;;20.00;9.20;;;;;;;;;;5115823;28;20302;-27
2023/11/13 05:06:00;;;;;;;23.15;9.07;;;;;;;;;;5116068;28;20273;-28
2023/11/13 05:08:26;;;;;;;19.58;9.07;;;;;;;;;;5115704;28;20020;-27
2023/11/13 05:10:51;;;;;;;17.45;8.80;;;;;;;;;;5115447;28;20015;-27
2023/11/13 05:13:16;;;;;;;14.43;9.07;;;;;;;;;;5115333;28;20062;-27
2023/11/13 05:15:41;;;;;;;16.90;9.27;;;;;;;;;;5115577;28;20114;-28
2023/11/13 05:18:07;;;;;;;21.63;9.60;;;;;;;;;;5115824;28;20365;-27
2023/11/13 05:20:39;;;;;;;16.23;9.48;;;;;;;;;;5115485;28;20489;-27
2023/11/13 05:23:04;;;;;;;15.23;9.00;;;;;;;;;;5115435;28;20020;-27
2023/11/13 05:25:30;;;;;;;15.38;9.23;;;;;;;;;;5114989;28;20592;-27
2023/11/13 05:27:55;;;;;;;16.67;9.13;;;;;;;;;;5115630;28;20023;-27
2023/11/13 05:30:20;;;;;;;16.67;9.60;;;;;;;;;;5115032;28;20254;-27
2023/11/13 05:32:45;;;;;;;15.50;9.55;;;;;;;;;;5114490;28;20340;-27
2023/11/13 05:35:10;;;;;;;17.57;9.13;;;;;;;;;;5115208;28;20351;-27
2023/11/13 05:37:35;;;;;;;19.88;9.27;;;;;;;;;;5114849;28;20253;-27
2023/11/13 05:40:02;;;;;;;17.83;10.25;;;;;;;;;;5115603;28;20036;-27
2023/11/13 05:42:27;;;;;;;17.77;9.68;;;;;;;;;;5115106;28;20023;-27
2023/11/13 05:44:54;;;;;;;20.83;9.77;;;;;;;;;;5115184;28;20038;-27
2023/11/13 05:47:19;;;;;;;16.25;10.07;;;;;;;;;;5114582;28;20268;-27
2023/11/13 05:49:44;;;;;;;18.40;9.33;;;;;;;;;;5115247;28;20020;-27
2023/11/13 05:52:09;;;;;;;18.23;10.03;;;;;;;;;;5114478;28;20303;-27
2023/11/13 05:54:36;;;;;;;21.17;9.47;;;;;;;;;;5114790;28;20273;-27
2023/11/13 05:57:02;;;;;;;18.45;9.85;;;;;;;;;;5114587;28;20253;-27
2023/11/13 05:59:28;;;;;;;15.68;9.52;;;;;;;;;;5115016;28;20079;-27
2023/11/13 06:01:54;;;;;;;17.77;10.25;;;;;;;;;;5114666;28;20046;-27
2023/11/13 06:04:19;;;;;;;14.77;9.50;;;;;;;;;;5115165;28;20446;-27
2023/11/13 06:06:45;;;;;;;20.58;10.20;;;;;;;;;;5114196;28;20026;-27
2023/11/13 06:09:11;;;;;;;24.45;11.05;;;;;;;;;;5114317;28;20016;-27
2023/11/13 06:11:37;;;;;;;20.33;10.18;;;;;;;;;;5114422;28;20020;-26
2023/11/13 06:14:05;;;;;;;21.42;10.60;;;;;;;;;;5114241;28;20016;-27
2023/11/13 06:16:32;;;;;;;17.85;9.75;;;;;;;;;;5114403;28;20535;-27
2023/11/13 06:18:59;;;;;;;23.80;10.55;;;;;;;;;;5114451;28;20090;-27
2023/11/13 06:21:24;;;;;;;24.00;10.73;;;;;;;;;;5096054;28;20020;-28
2023/11/13 06:23:50;;;;;;;22.15;11.23;;;;;;;;;;5114326;28;20045;-27
2023/11/13 06:26:15;;;;;;;26.52;10.63;;;;;;;;;;5114231;28;20016;-27
2023/11/13 06:28:40;;;;;;;35.70;11.55;;;;;;;;;;5114150;28;20024;-27
2023/11/13 06:31:07;;;;;;;35.97;11.48;;;;;;;;;;5114244;28;20185;-27
2023/11/13 06:33:32;;;;;;;26.73;11.00;;;;;;;;;;5113881;28;20019;-27
2023/11/13 06:35:57;;;;;;;33.47;12.20;;;;;;;;;;5113916;28;20020;-27
2023/11/13 06:38:22;;;;;;;32.20;11.02;;;;;;;;;;5114178;28;20477;-27
2023/11/13 06:40:49;;;;;;;38.23;11.40;;;;;;;;;;5113904;28;20466;-27
2023/11/13 06:43:15;;;;;;;47.80;12.18;;;;;;;;;;5114091;28;20754;-27
2023/11/13 06:45:43;;;;;;;29.83;11.27;;;;;;;;;;5113588;28;20099;-27
2023/11/13 06:48:08;;;;;;;34.15;11.73;;;;;;;;;;5114408;28;20016;-27
2023/11/13 06:50:33;;;;;;;45.38;11.10;;;;;;;;;;5113951;28;20343;-26
2023/11/13 06:52:58;;;;;;;34.63;11.98;;;;;;;;;;5113927;28;20047;-27
2023/11/13 06:55:23;;;;;;;35.10;11.77;;;;;;;;;;5113793;28;20378;-27
2023/11/13 06:57:48;;;;;;;24.27;11.97;;;;;;;;;;5113707;28;20269;-27
2023/11/13 07:00:16;;;;;;;26.87;11.57;;;;;;;;;;5113679;28;20747;-27
2023/11/13 07:02:43;;;;;;;35.00;11.85;;;;;;;;;;5114395;28;20293;-27
2023/11/13 07:05:10;;;;;;;39.55;11.88;;;;;;;;;;5113749;28;20020;-27
2023/11/13 07:07:36;;;;;;;30.75;12.35;;;;;;;;;;5114101;28;20538;-27
2023/11/13 07:10:02;;;;;;;34.38;12.25;;;;;;;;;;5113541;28;20016;-27
2023/11/13 07:12:29;;;;;;;28.15;12.43;;;;;;;;;;5113688;28;20008;-27
2023/11/13 07:14:55;;;;;;;38.25;12.00;;;;;;;;;;5113493;28;20023;-27
2023/11/13 07:17:21;;;;;;;25.75;11.45;;;;;;;;;;5113460;28;20023;-26
2023/11/13 07:19:46;;;;;;;32.13;11.88;;;;;;;;;;5113713;28;20016;-27
2023/11/13 07:22:11;;;;;;;30.47;11.43;;;;;;;;;;5113460;28;20020;-26
2023/11/13 07:24:38;;;;;;;28.10;11.07;;;;;;;;;;5114010;28;20241;-28
2023/11/13 07:27:03;;;;;;;29.10;11.13;;;;;;;;;;5113483;28;20100;-27
2023/11/13 07:29:30;;;;;;;22.15;10.85;;;;;;;;;;5113775;28;20051;-27
2023/11/13 07:31:55;;;;;;;24.40;10.38;;;;;;;;;;5113305;28;20098;-27
2023/11/13 07:34:20;;;;;;;21.05;9.70;;;;;;;;;;5113355;28;20058;-27
2023/11/13 07:36:45;;;;;;;24.02;10.25;;;;;;;;;;5113632;28;20415;-27
2023/11/13 07:39:11;;;;;;;21.93;10.13;;;;;;;;;;5113409;28;20378;-27
2023/11/13 07:41:37;;;;;;;20.20;9.45;;;;;;;;;;5113540;28;20253;-27
2023/11/13 07:44:02;;;;;;;20.98;9.82;;;;;;;;;;5113543;28;20098;-27
2023/11/13 07:46:28;;;;;;;23.00;10.35;;;;;;;;;;5113507;28;20446;-27
2023/11/13 07:48:53;;;;;;;20.50;9.85;;;;;;;;;;5113387;28;20008;-27
2023/11/13 07:51:19;;;;;;;23.92;10.02;;;;;;;;;;5113171;28;20031;-27
2023/11/13 07:53:46;;;;;;;17.75;9.65;;;;;;;;;;5113031;28;20394;-27
2023/11/13 07:56:13;;;;;;;15.98;8.45;;;;;;;;;;5114250;28;20055;-27
2023/11/13 07:58:38;;;;;;;16.88;8.60;;;;;;;;;;5116811;28;20031;-27
2023/11/13 08:01:04;;;;;;;17.35;8.70;;;;;;;;;;5117313;28;20016;-27
2023/11/13 08:03:29;;;;;;;18.73;8.73;;;;;;;;;;5116697;28;20069;-27
2023/11/13 08:05:54;;;;;;;17.35;8.63;;;;;;;;;;5117209;28;20059;-26
2023/11/13 08:08:19;;;;;;;14.55;7.93;;;;;;;;;;5116526;28;20026;-28
2023/11/13 08:10:48;;;;;;;14.30;7.28;;;;;;;;;;5116855;28;20051;-26
2023/11/13 08:13:14;;;;;;;16.10;6.57;;;;;;;;;;5116479;28;20016;-26
2023/11/13 08:15:39;;;;;;;14.70;7.32;;;;;;;;;;5116777;28;20031;-26
2023/11/13 08:18:04;;;;;;;13.65;6.80;;;;;;;;;;5117003;28;20023;-27
2023/11/13 08:20:30;;;;;;;12.35;6.78;;;;;;;;;;5116916;28;20447;-27
2023/11/13 08:22:56;;;;;;;12.05;6.90;;;;;;;;;;5116711;28;20462;-27
2023/11/13 08:25:22;;;;;;;9.68;5.60;;;;;;;;;;5098058;28;20051;-27
2023/11/13 08:27:47;;;;;;;12.10;6.55;;;;;;;;;;5116299;28;20478;-27
2023/11/13 08:30:15;;;;;;;15.35;6.75;;;;;;;;;;5116507;28;20043;-27
2023/11/13 08:32:41;;;;;;;11.13;6.20;;;;;;;;;;5116210;28;20023;-27
2023/11/13 08:35:11;;;;;;;10.70;6.35;;;;;;;;;;5116071;28;20020;-27
2023/11/13 08:37:36;;;;;;;12.02;6.55;;;;;;;;;;5116383;28;20027;-28
2023/11/13 08:40:01;;;;;;;11.45;5.85;;;;;;;;;;5115992;28;20355;-27
2023/11/13 08:42:27;;;;;;;12.05;6.18;;;;;;;;;;5116590;28;20023;-27
2023/11/13 08:44:52;;;;;;;11.35;5.97;;;;;;;;;;5115876;28;20023;-27
2023/11/13 08:47:18;;;;;;;9.85;5.75;;;;;;;;;;5115850;28;20416;-26
2023/11/13 08:49:43;;;;;;;8.67;5.53;;;;;;;;;;5115874;28;20054;-27
2023/11/13 08:52:08;;;;;;;10.02;5.70;;;;;;;;;;5115753;28;21368;-27
2023/11/13 08:54:34;;;;;;;11.65;5.80;;;;;;;;;;5097439;28;20035;-27
2023/11/13 08:57:02;;;;;;;10.13;5.55;;;;;;;;;;5115665;28;20524;-27
2023/11/13 08:59:28;;;;;;;10.55;5.55;;;;;;;;;;5115582;28;20020;-27
2023/11/13 09:01:53;;;;;;;9.70;5.70;;;;;;;;;;5115882;28;20023;-27
2023/11/13 09:04:18;;;;;;;9.43;5.50;;;;;;;;;;5115855;28;20051;-27
2023/11/13 09:06:45;;;;;;;9.50;5.73;;;;;;;;;;5115474;28;20053;-27
2023/11/13 09:09:11;;;;;;;10.40;6.00;;;;;;;;;;5114778;28;20757;-27
2023/11/13 09:11:37;;;;;;;9.95;6.60;;;;;;;;;;5115630;28;20084;-27
2023/11/13 09:14:02;;;;;;;11.82;6.80;;;;;;;;;;5115352;28;20020;-27
2023/11/13 09:16:27;;;;;;;12.13;6.77;;;;;;;;;;5115337;28;20016;-27
2023/11/13 09:18:54;;;;;;;15.27;6.00;;;;;;;;;;5115242;28;20452;-32
2023/11/13 09:21:20;;;;;;;13.07;6.15;;;;;;;;;;5115232;28;20024;-27
2023/11/13 09:23:46;;;;;;;13.50;7.03;;;;;;;;;;5115446;28;20020;-27
2023/11/13 09:26:11;;;;;;;12.85;6.45;;;;;;;;;;5115329;28;20015;-27
2023/11/13 09:28:37;;;;;;;14.20;6.70;;;;;;;;;;5115058;28;20011;-27
2023/11/13 09:31:03;;;;;;;16.48;6.10;;;;;;;;;;5096269;28;20282;-27
2023/11/13 09:33:29;;;;;;;13.80;6.10;;;;;;;;;;5115243;28;20022;-27
2023/11/13 09:35:54;;;;;;;14.35;6.63;;;;;;;;;;5115266;28;20019;-27
2023/11/13 09:38:19;;;;;;;10.70;5.32;;;;;;;;;;5115161;28;20047;-27
2023/11/13 09:40:45;;;;;;;12.23;5.35;;;;;;;;;;5115562;28;20078;-27
2023/11/13 09:43:15;;;;;;;13.30;5.80;;;;;;;;;;5114608;28;20049;-27
2023/11/13 09:45:45;;;;;;;12.80;5.45;;;;;;;;;;5115242;28;20106;-27
2023/11/13 09:48:13;;;;;;;12.90;5.18;;;;;;;;;;5114582;28;20034;-27
2023/11/13 09:50:39;;;;;;;12.18;4.93;;;;;;;;;;5115025;28;20018;-27
2023/11/13 09:53:05;;;;;;;9.07;4.80;;;;;;;;;;5115183;28;20059;-27
2023/11/13 09:55:31;;;;;;;10.75;4.80;;;;;;;;;;5114551;28;20471;-27
2023/11/13 09:57:57;;;;;;;10.88;4.30;;;;;;;;;;5115040;28;20055;-27
2023/11/13 10:00:23;;;;;;;12.00;4.20;;;;;;;;;;5115559;28;20393;-27
2023/11/13 10:02:49;;;;;;;8.98;3.65;;;;;;;;;;5114450;28;20112;-26
2023/11/13 10:05:15;;;;;;;9.55;4.45;;;;;;;;;;5114565;28;20370;-28
2023/11/13 10:07:52;;;;;;;8.05;3.75;;;;;;;;;;5114580;28;20018;-27
2023/11/13 10:10:22;;;;;;;11.18;3.30;;;;;;;;;;5114829;28;20450;-27
2023/11/13 10:12:47;;;;;;;9.68;3.30;;;;;;;;;;5112957;28;20008;-27
2023/11/13 10:15:12;;;;;;;10.80;3.53;;;;;;;;;;5113389;28;20016;-27
2023/11/13 10:17:42;;;;;;;13.30;3.80;;;;;;;;;;5113690;28;20024;-26
2023/11/13 10:20:07;;;;;;;10.90;3.38;;;;;;;;;;5113297;28;20349;-27
2023/11/13 10:22:32;;;;;;;6.85;2.50;;;;;;;;;;5113381;28;20062;-27
2023/11/13 10:24:58;;;;;;;7.20;2.47;;;;;;;;;;5113354;28;20020;-27
2023/11/13 10:27:23;;;;;;;8.13;2.28;;;;;;;;;;5113535;28;20354;-27
2023/11/13 10:29:48;;;;;;;5.68;2.20;;;;;;;;;;5113578;28;20473;-27
2023/11/13 10:32:16;;;;;;;6.23;2.10;;;;;;;;;;5113639;28;20072;-27
2023/11/13 10:34:43;;;;;;;7.10;2.75;;;;;;;;;;5114077;28;20311;-27
2023/11/13 10:37:09;;;;;;;9.20;2.15;;;;;;;;;;5114384;28;20028;-27
2023/11/13 10:39:37;;;;;;;8.98;2.65;;;;;;;;;;5113101;28;20153;-28
2023/11/13 10:42:23;;;;;;;7.13;2.00;;;;;;;;;;5113566;28;20105;-28
2023/11/13 10:44:55;;;;;;;4.05;2.08;;;;;;;;;;5113287;28;20039;-28
2023/11/13 10:47:24;;;;;;;7.80;2.40;;;;;;;;;;5113984;28;20019;-27
2023/11/13 10:49:50;;;;;;;5.65;2.08;;;;;;;;;;5113785;28;20351;-27
2023/11/13 10:52:21;;;;;;;5.95;1.63;;;;;;;;;;5113836;28;20038;-28
2023/11/13 10:54:53;;;;;;;4.38;1.80;;;;;;;;;;5113756;28;20102;-27
2023/11/13 10:57:19;;;;;;;4.30;1.70;;;;;;;;;;5113828;28;20022;-27
2023/11/13 10:59:46;;;;;;;4.50;2.10;;;;;;;;;;5112169;28;20102;-27
2023/11/13 11:02:32;;;;;;;5.00;1.80;;;;;;;;;;5113599;28;20015;-27
2023/11/13 11:05:02;;;;;;;7.25;2.25;;;;;;;;;;5113651;28;20012;-27
2023/11/13 11:07:29;;;;;;;3.47;1.77;;;;;;;;;;5113925;28;20023;-27
2023/11/13 11:09:56;;;;;;;6.75;3.10;;;;;;;;;;5113639;28;20477;-27
2023/11/13 11:12:21;;;;;;;5.65;2.00;;;;;;;;;;5113735;28;20084;-27
2023/11/13 11:15:02;;;;;;;4.88;1.98;;;;;;;;;;5095343;28;20408;-27
2023/11/13 11:17:32;;;;;;;4.68;2.17;;;;;;;;;;5114074;28;20147;-27
2023/11/13 11:20:02;;;;;;;5.63;2.03;;;;;;;;;;5113803;28;20049;-27
2023/11/13 11:22:31;;;;;;;5.35;2.05;;;;;;;;;;5113778;28;20015;-27
2023/11/13 11:24:59;;;;;;;3.88;1.70;;;;;;;;;;5113829;28;20062;-28
2023/11/13 11:27:35;;;;;;;5.00;1.90;;;;;;;;;;5113459;28;20027;-28
2023/11/13 11:30:00;;;;;;;3.90;1.85;;;;;;;;;;5113426;28;20038;-27
2023/11/13 11:32:25;;;;;;;3.85;2.05;;;;;;;;;;5116873;28;20024;-27
2023/11/13 11:34:58;;;;;;;4.05;2.20;;;;;;;;;;5117296;28;20019;-27
2023/11/13 11:37:23;;;;;;;4.53;2.33;;;;;;;;;;5117299;28;20141;-27
2023/11/13 11:39:49;;;;;;;5.87;2.37;;;;;;;;;;5117779;28;20051;-27
2023/11/13 11:42:22;;;;;;;8.15;2.60;;;;;;;;;;5117434;28;20719;-27
2023/11/13 11:44:53;;;;;;;5.40;2.35;;;;;;;;;;5117099;28;20023;-27
2023/11/13 11:47:27;;;;;;;7.88;2.95;;;;;;;;;;5117572;28;20019;-28
2023/11/13 11:49:59;;;;;;;7.75;2.83;;;;;;;;;;5117353;28;20091;-28
2023/11/13 11:52:39;;;;;;;6.88;3.30;;;;;;;;;;5117256;28;20044;-28
2023/11/13 11:55:04;;;;;;;7.72;3.42;;;;;;;;;;5116848;28;20019;-27
2023/11/13 11:57:30;;;;;;;5.60;3.45;;;;;;;;;;5117673;28;20098;-28
2023/11/13 12:00:00;;;;;;;4.72;3.13;;;;;;;;;;5117160;28;20486;-27
2023/11/13 12:02:28;;;;;;;8.15;4.15;;;;;;;;;;5116991;28;20088;-27
2023/11/13 12:04:53;;;;;;;7.82;3.85;;;;;;;;;;5116969;28;20424;-27
2023/11/13 12:07:18;;;;;;;9.35;3.90;;;;;;;;;;5116868;28;20103;-29
2023/11/13 12:09:43;;;;;;;9.63;4.20;;;;;;;;;;5116953;28;20450;-27
2023/11/13 12:12:10;;;;;;;7.75;4.20;;;;;;;;;;5116780;28;20249;-27
2023/11/13 12:14:37;;;;;;;11.60;4.93;;;;;;;;;;5116824;28;20395;-27
2023/11/13 12:17:03;;;;;;;13.90;4.60;;;;;;;;;;5116733;28;20016;-28
2023/11/13 12:19:28;;;;;;;9.48;5.25;;;;;;;;;;5116711;28;20084;-27
2023/11/13 12:21:56;;;;;;;8.87;5.37;;;;;;;;;;5116348;28;20020;-27
2023/11/13 12:24:21;;;;;;;10.95;5.85;;;;;;;;;;5116290;28;20356;-28
2023/11/13 12:26:49;;;;;;;13.13;5.60;;;;;;;;;;5116361;28;20102;-28
2023/11/13 12:29:23;;;;;;;11.07;5.43;;;;;;;;;;5116520;28;20277;-27
2023/11/13 12:31:52;;;;;;;10.43;5.75;;;;;;;;;;5116586;28;20043;-27
2023/11/13 12:34:18;;;;;;;11.98;5.55;;;;;;;;;;5116497;28;20020;-28
2023/11/13 12:36:47;;;;;;;13.02;6.13;;;;;;;;;;5116383;28;20374;-28
2023/11/13 12:39:18;;;;;;;14.82;5.93;;;;;;;;;;5116014;28;20028;-27
2023/11/13 12:41:46;;;;;;;14.57;6.38;;;;;;;;;;5116145;28;20460;-27
2023/11/13 12:44:12;;;;;;;16.25;5.60;;;;;;;;;;5116038;28;20020;-28
2023/11/13 12:46:41;;;;;;;17.20;5.28;;;;;;;;;;5115813;28;20023;-27
2023/11/13 12:49:11;;;;;;;20.98;5.13;;;;;;;;;;5116477;28;20069;-27
2023/11/13 12:51:38;;;;;;;15.02;5.00;;;;;;;;;;5116117;28;20031;-28
2023/11/13 12:54:04;;;;;;;17.40;4.38;;;;;;;;;;5115582;28;20036;-28
2023/11/13 12:56:29;;;;;;;14.30;4.38;;;;;;;;;;5114930;28;20024;-28
2023/11/13 12:58:54;;;;;;;12.23;4.33;;;;;;;;;;5116027;28;20519;-28
2023/11/13 13:01:21;;;;;;;12.63;3.83;;;;;;;;;;5116230;28;20253;-28
2023/11/13 13:03:47;;;;;;;15.95;4.03;;;;;;;;;;5115873;28;20253;-27
2023/11/13 13:06:13;;;;;;;9.23;3.70;;;;;;;;;;5116080;28;20073;-28
2023/11/13 13:08:40;;;;;;;7.45;3.08;;;;;;;;;;5115782;28;20028;-27
2023/11/13 13:11:05;;;;;;;11.90;3.75;;;;;;;;;;5115626;28;20462;-28
2023/11/13 13:13:31;;;;;;;10.27;3.28;;;;;;;;;;5097033;28;20023;-27
2023/11/13 13:15:57;;;;;;;12.45;3.13;;;;;;;;;;5115381;28;20019;-27
2023/11/13 13:18:22;;;;;;;14.98;3.17;;;;;;;;;;5115304;28;20094;-27
2023/11/13 13:20:49;;;;;;;12.65;3.10;;;;;;;;;;5115605;28;20054;-27
2023/11/13 13:23:14;;;;;;;13.15;3.00;;;;;;;;;;5115303;28;20039;-27
2023/11/13 13:25:39;;;;;;;12.73;3.28;;;;;;;;;;5115216;28;20050;-28
2023/11/13 13:28:06;;;;;;;14.83;3.13;;;;;;;;;;5115098;28;20031;-27
2023/11/13 13:30:36;;;;;;;10.32;2.63;;;;;;;;;;5115310;28;20268;-27
2023/11/13 13:33:09;;;;;;;12.30;3.00;;;;;;;;;;5115345;28;20022;-27
2023/11/13 13:35:34;;;;;;;;;;;;;;;;;;5115945;28;20356;-27
2023/11/13 13:37:59;;;;;;;12.30;2.72;;;;;;;;;;5114971;28;20346;-27
2023/11/13 13:40:25;;;;;;;10.23;2.75;;;;;;;;;;5115427;28;20024;-27
2023/11/13 13:42:50;;;;;;;18.35;3.08;;;;;;;;;;5115078;28;20106;-27
2023/11/13 13:45:16;;;;;;;14.27;2.93;;;;;;;;;;5114994;28;20023;-27
2023/11/13 13:47:42;;;;;;;13.10;2.67;;;;;;;;;;5114967;28;20261;-27
2023/11/13 13:50:10;;;;;;;10.73;2.55;;;;;;;;;;5115010;28;20020;-27
2023/11/13 13:52:40;;;;;;;13.40;3.00;;;;;;;;;;5114615;28;20043;-28
2023/11/13 13:55:09;;;;;;;10.85;2.90;;;;;;;;;;5113869;28;20149;-27
2023/11/13 13:57:36;;;;;;;13.75;2.60;;;;;;;;;;5114822;28;20379;-27
2023/11/13 14:00:01;;;;;;;16.75;3.45;;;;;;;;;;5114977;28;20023;-27
2023/11/13 14:02:26;;;;;;;12.70;2.40;;;;;;;;;;5114450;28;20454;-27
2023/11/13 14:04:52;;;;;;;17.07;2.97;;;;;;;;;;5114444;28;20447;-27
2023/11/13 14:07:17;;;;;;;16.33;3.17;;;;;;;;;;5114737;28;20309;-27
2023/11/13 14:09:43;;;;;;;17.03;3.27;;;;;;;;;;5114287;28;20015;-27
2023/11/13 14:12:08;;;;;;;23.15;3.42;;;;;;;;;;5114970;28;20242;-27
2023/11/13 14:14:34;;;;;;;24.55;3.53;;;;;;;;;;5114155;28;20019;-27
2023/11/13 14:16:59;;;;;;;22.23;4.07;;;;;;;;;;5114257;28;20098;-27
2023/11/13 14:19:24;;;;;;;15.57;3.23;;;;;;;;;;5113810;28;20476;-27
2023/11/13 14:21:50;;;;;;;23.53;3.53;;;;;;;;;;5113808;28;20381;-27